createdAt,value
2022-07-29T00:01:19.516Z,16.01
2022-07-29T00:03:49.080Z,16.03
2022-07-29T00:06:18.672Z,16.04
2022-07-29T00:08:47.939Z,15.98
2022-07-29T00:11:17.246Z,15.94
2022-07-29T00:13:50.841Z,15.96
2022-07-29T00:16:17.687Z,16.00
2022-07-29T00:18:47.029Z,15.97
2022-07-29T00:21:16.377Z,15.92
2022-07-29T00:23:45.666Z,15.92
2022-07-29T00:26:15.019Z,15.88
2022-07-29T00:28:44.276Z,15.88
2022-07-29T00:31:13.997Z,15.82
2022-07-29T00:33:43.269Z,15.81
2022-07-29T00:36:12.827Z,15.82
2022-07-29T00:38:43.864Z,15.81
2022-07-29T00:41:13.971Z,15.84
2022-07-29T00:43:43.674Z,15.83
2022-07-29T00:46:13.774Z,15.85
2022-07-29T00:48:43.305Z,15.87
2022-07-29T00:51:12.689Z,15.88
2022-07-29T00:53:42.049Z,15.88
2022-07-29T00:56:11.397Z,15.90
2022-07-29T00:58:41.434Z,15.89
2022-07-29T01:01:10.759Z,15.89
2022-07-29T01:03:40.055Z,15.86
2022-07-29T01:06:09.889Z,15.80
2022-07-29T01:08:39.439Z,15.75
2022-07-29T01:11:09.372Z,15.70
2022-07-29T01:13:39.079Z,15.68
2022-07-29T01:16:11.590Z,15.68
2022-07-29T01:18:44.161Z,15.70
2022-07-29T01:21:20.255Z,15.67
2022-07-29T01:24:23.182Z,15.65
2022-07-29T01:27:01.401Z,15.62
2022-07-29T01:29:40.372Z,15.55
2022-07-29T01:32:27.836Z,15.51
2022-07-29T01:34:54.443Z,15.50
2022-07-29T01:37:29.376Z,15.51
2022-07-29T01:40:00.368Z,15.47
2022-07-29T01:42:32.810Z,15.46
2022-07-29T01:45:17.014Z,15.44
2022-07-29T01:47:55.627Z,15.43
2022-07-29T01:50:28.038Z,15.40
2022-07-29T01:53:00.521Z,15.34
2022-07-29T01:55:31.701Z,15.30
2022-07-29T01:58:01.919Z,15.26
2022-07-29T02:00:32.768Z,15.25
2022-07-29T02:03:04.813Z,15.23
2022-07-29T02:05:35.343Z,15.25
2022-07-29T02:08:05.432Z,15.25
2022-07-29T02:10:35.639Z,15.26
2022-07-29T02:13:06.625Z,15.21
2022-07-29T02:15:36.655Z,15.15
2022-07-29T02:18:22.781Z,15.13
2022-07-29T02:20:54.435Z,15.09
2022-07-29T02:23:25.434Z,14.98
2022-07-29T02:25:57.108Z,14.93
2022-07-29T02:28:28.698Z,14.91
2022-07-29T02:31:02.742Z,14.87
2022-07-29T02:33:33.097Z,14.85
2022-07-29T02:36:03.352Z,14.85
2022-07-29T02:38:51.066Z,14.84
2022-07-29T02:41:32.960Z,14.82
2022-07-29T02:44:05.494Z,14.78
2022-07-29T02:46:36.934Z,14.73
2022-07-29T02:49:21.321Z,14.69
2022-07-29T02:52:16.491Z,14.65
2022-07-29T02:55:08.570Z,14.61
2022-07-29T02:57:53.739Z,14.62
2022-07-29T03:00:13.189Z,14.61
2022-07-29T03:02:45.061Z,14.58
2022-07-29T03:05:17.612Z,14.55
2022-07-29T03:07:47.845Z,14.53
2022-07-29T03:10:17.999Z,14.53
2022-07-29T03:12:47.665Z,14.48
2022-07-29T03:15:17.180Z,14.41
2022-07-29T03:17:46.825Z,14.42
2022-07-29T03:20:16.458Z,14.41
2022-07-29T03:22:48.294Z,14.42
2022-07-29T03:25:19.280Z,14.38
2022-07-29T03:27:49.406Z,14.40
2022-07-29T03:30:21.754Z,14.37
2022-07-29T03:32:51.875Z,14.34
2022-07-29T03:35:21.878Z,14.33
2022-07-29T03:37:51.653Z,14.28
2022-07-29T03:40:33.753Z,14.28
2022-07-29T03:43:03.952Z,14.29
2022-07-29T03:45:34.380Z,14.31
2022-07-29T03:48:09.546Z,14.29
2022-07-29T03:50:38.963Z,14.27
2022-07-29T03:53:08.320Z,14.25
2022-07-29T03:55:43.556Z,14.23
2022-07-29T03:58:13.853Z,14.17
2022-07-29T04:00:44.918Z,14.13
2022-07-29T04:03:15.730Z,14.14
2022-07-29T04:05:45.378Z,14.12
2022-07-29T04:08:14.673Z,14.13
2022-07-29T04:10:43.974Z,14.10
2022-07-29T04:13:13.257Z,14.12
2022-07-29T04:15:42.720Z,14.14
2022-07-29T04:18:12.025Z,14.13
2022-07-29T04:20:41.296Z,14.20
2022-07-29T04:23:10.767Z,14.18
2022-07-29T04:25:40.953Z,14.16
2022-07-29T04:28:10.763Z,14.21
2022-07-29T04:30:40.446Z,14.34
2022-07-29T04:33:10.082Z,14.33
2022-07-29T04:35:45.798Z,14.37
2022-07-29T04:38:15.820Z,14.37
2022-07-29T04:40:41.945Z,14.38
2022-07-29T04:43:11.186Z,14.38
2022-07-29T04:45:42.148Z,14.38
2022-07-29T04:48:11.565Z,14.40
2022-07-29T04:50:41.677Z,14.41
2022-07-29T04:53:10.931Z,14.41
2022-07-29T04:55:40.265Z,14.44
2022-07-29T04:58:09.511Z,14.46
2022-07-29T05:00:38.920Z,14.51
2022-07-29T05:03:08.212Z,14.61
2022-07-29T05:05:37.496Z,14.65
2022-07-29T05:08:06.844Z,14.69
2022-07-29T05:10:38.440Z,14.74
2022-07-29T05:13:08.561Z,14.74
2022-07-29T05:15:38.349Z,14.76
2022-07-29T05:18:08.067Z,14.79
2022-07-29T05:20:37.419Z,14.81
2022-07-29T05:23:06.711Z,14.83
2022-07-29T05:25:43.569Z,14.83
2022-07-29T05:28:07.791Z,14.87
2022-07-29T05:30:37.152Z,14.91
2022-07-29T05:33:06.488Z,14.98
2022-07-29T05:35:37.517Z,15.09
2022-07-29T05:38:06.890Z,15.11
2022-07-29T05:40:36.726Z,15.22
2022-07-29T05:43:05.968Z,15.27
2022-07-29T05:45:35.329Z,15.31
2022-07-29T05:48:06.436Z,15.33
2022-07-29T05:50:35.704Z,15.34
2022-07-29T05:53:19.722Z,15.39
2022-07-29T05:55:37.843Z,15.46
2022-07-29T05:58:08.815Z,15.60
2022-07-29T06:00:38.064Z,15.79
2022-07-29T06:03:07.303Z,15.96
2022-07-29T06:05:36.682Z,16.03
2022-07-29T06:08:09.502Z,16.11
2022-07-29T06:10:39.701Z,16.27
2022-07-29T06:13:09.055Z,16.41
2022-07-29T06:15:38.445Z,16.54
2022-07-29T06:18:09.363Z,16.57
2022-07-29T06:20:39.565Z,16.65
2022-07-29T06:23:08.870Z,16.80
2022-07-29T06:25:38.731Z,16.95
2022-07-29T06:28:07.986Z,17.29
2022-07-29T06:30:37.325Z,17.55
2022-07-29T06:33:06.735Z,17.52
2022-07-29T06:35:42.349Z,17.75
2022-07-29T06:38:34.162Z,17.71
2022-07-29T06:41:03.790Z,17.44
2022-07-29T06:43:50.444Z,17.47
2022-07-29T06:46:21.219Z,17.30
2022-07-29T06:48:50.973Z,17.17
2022-07-29T06:51:22.521Z,17.10
2022-07-29T06:53:59.979Z,17.03
2022-07-29T06:56:24.080Z,16.99
2022-07-29T06:58:54.059Z,16.92
2022-07-29T07:01:23.593Z,16.90
2022-07-29T07:03:52.900Z,16.93
2022-07-29T07:06:22.202Z,16.97
2022-07-29T07:08:51.481Z,17.09
2022-07-29T07:11:20.820Z,17.10
2022-07-29T07:13:50.133Z,16.92
2022-07-29T07:16:19.647Z,17.12
2022-07-29T07:18:49.033Z,17.07
2022-07-29T07:21:19.100Z,17.06
2022-07-29T07:23:49.136Z,16.95
2022-07-29T07:26:18.472Z,16.97
2022-07-29T07:28:47.709Z,17.03
2022-07-29T07:31:17.139Z,17.02
2022-07-29T07:33:46.413Z,16.99
2022-07-29T07:36:15.759Z,16.96
2022-07-29T07:38:45.080Z,17.34
2022-07-29T07:41:14.408Z,17.57
2022-07-29T07:43:43.884Z,17.84
2022-07-29T07:46:13.333Z,18.04
2022-07-29T07:48:43.045Z,18.11
2022-07-29T07:51:12.791Z,18.14
2022-07-29T07:53:42.026Z,18.13
2022-07-29T07:56:12.735Z,18.10
2022-07-29T07:58:42.527Z,17.99
2022-07-29T08:01:12.342Z,18.08
2022-07-29T08:03:41.649Z,18.19
2022-07-29T08:06:10.926Z,18.16
2022-07-29T08:08:40.280Z,18.25
2022-07-29T08:11:10.054Z,18.32
2022-07-29T08:13:40.281Z,18.28
2022-07-29T08:16:13.955Z,18.30
2022-07-29T08:18:44.834Z,18.26
2022-07-29T08:21:15.597Z,18.29
2022-07-29T08:23:51.494Z,18.18
2022-07-29T08:26:18.101Z,18.29
2022-07-29T08:28:49.534Z,18.39
2022-07-29T08:31:19.398Z,18.62
2022-07-29T08:33:48.683Z,18.82
2022-07-29T08:36:17.973Z,18.91
2022-07-29T08:38:47.392Z,19.16
2022-07-29T08:41:17.753Z,19.20
2022-07-29T08:43:47.693Z,19.33
2022-07-29T08:46:18.353Z,19.23
2022-07-29T08:48:51.464Z,19.44
2022-07-29T08:51:22.321Z,19.55
2022-07-29T08:53:52.602Z,19.39
2022-07-29T08:56:22.030Z,19.40
2022-07-29T08:58:52.718Z,19.64
2022-07-29T09:01:36.064Z,19.69
2022-07-29T09:03:59.209Z,19.93
2022-07-29T09:06:33.238Z,19.83
2022-07-29T09:09:02.600Z,20.01
2022-07-29T09:11:33.482Z,19.98
2022-07-29T09:14:02.888Z,20.13
2022-07-29T09:16:57.733Z,20.27
2022-07-29T09:19:33.218Z,20.39
2022-07-29T09:22:04.317Z,20.50
2022-07-29T09:24:41.185Z,20.77
2022-07-29T09:27:27.040Z,20.72
2022-07-29T09:30:01.523Z,20.91
2022-07-29T09:32:31.335Z,21.20
2022-07-29T09:35:21.361Z,21.23
2022-07-29T09:37:51.255Z,21.40
2022-07-29T09:40:23.261Z,21.72
2022-07-29T09:42:54.898Z,21.69
2022-07-29T09:45:32.981Z,21.88
2022-07-29T09:48:22.076Z,21.92
2022-07-29T09:50:51.984Z,22.41
2022-07-29T09:53:40.976Z,23.49
2022-07-29T09:56:11.690Z,24.58
2022-07-29T09:58:41.184Z,25.56
2022-07-29T10:01:10.645Z,27.49
2022-07-29T10:03:53.484Z,28.32
2022-07-29T10:06:24.588Z,29.84
2022-07-29T10:08:53.929Z,31.28
2022-07-29T10:11:23.611Z,30.65
2022-07-29T10:13:52.853Z,30.86
2022-07-29T10:16:22.290Z,30.15
2022-07-29T10:18:52.107Z,32.10
2022-07-29T10:21:35.082Z,32.19
2022-07-29T10:23:54.431Z,34.08
2022-07-29T10:26:25.750Z,33.36
2022-07-29T10:28:55.131Z,33.40
2022-07-29T10:31:30.260Z,33.41
2022-07-29T10:34:17.869Z,31.82
2022-07-29T10:36:57.468Z,32.01
2022-07-29T10:39:49.871Z,33.37
2022-07-29T10:42:33.289Z,34.11
2022-07-29T10:44:56.880Z,33.37
2022-07-29T10:47:28.072Z,33.83
2022-07-29T10:49:57.341Z,33.74
2022-07-29T10:52:30.290Z,33.21
2022-07-29T10:55:01.309Z,34.94
2022-07-29T10:57:53.881Z,35.17
2022-07-29T11:00:11.591Z,35.11
2022-07-29T11:02:44.714Z,35.02
2022-07-29T11:05:15.485Z,35.09
2022-07-29T11:08:19.712Z,34.98
2022-07-29T11:10:44.653Z,34.04
2022-07-29T11:13:14.318Z,33.71
2022-07-29T11:15:56.545Z,34.17
2022-07-29T11:18:26.080Z,34.59
2022-07-29T11:20:55.435Z,34.68
2022-07-29T11:23:33.835Z,33.89
2022-07-29T11:26:18.937Z,34.26
2022-07-29T11:29:12.622Z,35.02
2022-07-29T11:31:44.267Z,34.57
2022-07-29T11:34:30.764Z,34.79
2022-07-29T11:37:15.117Z,34.32
2022-07-29T11:39:47.434Z,33.81
2022-07-29T11:42:32.999Z,33.88
2022-07-29T11:45:41.520Z,31.91
2022-07-29T11:47:41.589Z,32.46
2022-07-29T11:50:14.437Z,31.82
2022-07-29T11:52:49.802Z,31.61
2022-07-29T11:55:22.089Z,32.38
2022-07-29T11:58:04.007Z,32.20
2022-07-29T12:00:35.492Z,33.06
2022-07-29T12:03:08.470Z,33.09
2022-07-29T12:05:48.261Z,33.30
2022-07-29T12:08:19.009Z,33.85
2022-07-29T12:10:50.818Z,33.26
2022-07-29T12:13:22.214Z,32.04
2022-07-29T12:15:59.993Z,31.52
2022-07-29T12:18:29.229Z,33.08
2022-07-29T12:21:05.496Z,33.24
2022-07-29T12:23:35.548Z,32.70
2022-07-29T12:26:11.108Z,33.08
2022-07-29T12:28:41.471Z,33.74
2022-07-29T12:31:43.449Z,33.79
2022-07-29T12:33:51.600Z,33.63
2022-07-29T12:36:20.935Z,33.79
2022-07-29T12:38:50.402Z,32.95
2022-07-29T12:41:21.589Z,33.24
2022-07-29T12:43:55.506Z,33.24
2022-07-29T12:46:24.803Z,32.76
2022-07-29T12:48:56.821Z,33.33
2022-07-29T12:51:37.604Z,33.43
2022-07-29T12:54:09.423Z,33.50
2022-07-29T12:56:44.307Z,33.30
2022-07-29T12:59:17.707Z,32.21
2022-07-29T13:01:51.446Z,32.04
2022-07-29T13:04:32.296Z,32.77
2022-07-29T13:07:04.616Z,32.46
2022-07-29T13:09:45.022Z,32.89
2022-07-29T13:12:15.819Z,33.02
2022-07-29T13:14:53.666Z,33.51
2022-07-29T13:17:32.700Z,32.43
2022-07-29T13:20:11.290Z,32.58
2022-07-29T13:22:41.044Z,32.66
2022-07-29T13:25:11.514Z,32.13
2022-07-29T13:27:41.558Z,31.83
2022-07-29T13:30:12.296Z,31.73
2022-07-29T13:32:41.582Z,30.10
2022-07-29T13:35:11.325Z,29.70
2022-07-29T13:37:40.681Z,30.31
2022-07-29T13:40:11.127Z,29.79
2022-07-29T13:42:40.482Z,29.76
2022-07-29T13:45:11.650Z,29.24
2022-07-29T13:47:47.660Z,29.28
2022-07-29T13:50:13.050Z,29.14
2022-07-29T13:52:42.327Z,29.38
2022-07-29T13:55:11.579Z,29.00
2022-07-29T13:57:40.830Z,29.76
2022-07-29T14:00:11.526Z,28.62
2022-07-29T14:02:40.832Z,28.37
2022-07-29T14:05:11.193Z,28.29
2022-07-29T14:07:40.794Z,28.05
2022-07-29T14:10:10.921Z,27.98
2022-07-29T14:12:41.976Z,27.76
2022-07-29T14:15:11.616Z,27.89
2022-07-29T14:17:40.909Z,27.97
2022-07-29T14:20:10.745Z,28.12
2022-07-29T14:22:42.653Z,28.29
2022-07-29T14:25:14.958Z,27.90
2022-07-29T14:27:42.329Z,28.07
2022-07-29T14:30:12.234Z,27.91
2022-07-29T14:32:41.578Z,28.03
2022-07-29T14:35:11.002Z,27.17
2022-07-29T14:37:43.273Z,27.61
2022-07-29T14:40:12.965Z,27.23
2022-07-29T14:42:42.377Z,27.12
2022-07-29T14:45:12.086Z,26.63
2022-07-29T14:47:41.825Z,26.41
2022-07-29T14:50:11.429Z,26.31
2022-07-29T14:52:40.720Z,26.44
2022-07-29T14:55:19.839Z,26.30
2022-07-29T14:57:41.241Z,26.37
2022-07-29T15:00:12.174Z,26.64
2022-07-29T15:03:00.949Z,26.72
2022-07-29T15:05:12.623Z,26.97
2022-07-29T15:07:41.973Z,27.17
2022-07-29T15:10:11.308Z,27.13
2022-07-29T15:12:42.351Z,27.09
2022-07-29T15:15:12.694Z,27.34
2022-07-29T15:17:43.541Z,26.89
2022-07-29T15:20:13.346Z,26.16
2022-07-29T15:22:43.970Z,26.14
2022-07-29T15:25:13.478Z,26.30
2022-07-29T15:27:42.903Z,26.17
2022-07-29T15:30:31.603Z,26.31
2022-07-29T15:32:46.911Z,26.84
2022-07-29T15:35:16.185Z,26.68
2022-07-29T15:37:48.898Z,26.64
2022-07-29T15:40:17.078Z,26.63
2022-07-29T15:42:46.482Z,26.90
2022-07-29T15:45:15.740Z,27.32
2022-07-29T15:47:46.702Z,27.00
2022-07-29T15:50:16.826Z,26.89
2022-07-29T15:52:46.992Z,26.79
2022-07-29T15:55:16.535Z,26.64
2022-07-29T15:57:45.770Z,26.66
2022-07-29T16:00:17.302Z,26.67
2022-07-29T16:02:46.589Z,26.64
2022-07-29T16:05:15.949Z,26.71
2022-07-29T16:07:45.195Z,26.63
2022-07-29T16:10:14.680Z,26.26
2022-07-29T16:12:45.644Z,26.18
2022-07-29T16:15:15.397Z,26.25
2022-07-29T16:17:44.994Z,26.06
2022-07-29T16:20:14.259Z,26.08
2022-07-29T16:22:43.665Z,26.13
2022-07-29T16:25:13.195Z,25.94
2022-07-29T16:27:42.507Z,25.78
2022-07-29T16:30:12.667Z,25.57
2022-07-29T16:32:42.095Z,25.57
2022-07-29T16:35:11.757Z,25.57
2022-07-29T16:37:41.071Z,25.59
2022-07-29T16:40:11.421Z,25.50
2022-07-29T16:42:47.028Z,25.46
2022-07-29T16:45:13.048Z,25.53
2022-07-29T16:47:42.418Z,25.65
2022-07-29T16:50:12.495Z,25.14
2022-07-29T16:52:41.792Z,25.06
2022-07-29T16:55:11.300Z,25.17
2022-07-29T16:57:42.304Z,25.14
2022-07-29T17:00:12.816Z,25.18
2022-07-29T17:02:42.176Z,24.93
2022-07-29T17:05:12.442Z,24.99
2022-07-29T17:07:42.719Z,25.32
2022-07-29T17:10:12.379Z,25.50
2022-07-29T17:12:42.403Z,25.38
2022-07-29T17:15:13.045Z,25.32
2022-07-29T17:17:55.144Z,25.33
2022-07-29T17:20:13.529Z,25.32
2022-07-29T17:22:44.503Z,24.97
2022-07-29T17:25:20.597Z,24.98
2022-07-29T17:27:45.148Z,24.65
2022-07-29T17:30:14.707Z,24.70
2022-07-29T17:32:43.975Z,24.66
2022-07-29T17:35:31.211Z,24.57
2022-07-29T17:38:00.467Z,24.61
2022-07-29T17:40:29.887Z,24.26
2022-07-29T17:42:59.203Z,24.20
2022-07-29T17:45:49.349Z,24.24
2022-07-29T17:47:59.769Z,24.11
2022-07-29T17:50:29.080Z,23.86
2022-07-29T17:52:58.328Z,23.71
2022-07-29T17:55:27.646Z,23.58
2022-07-29T17:57:59.981Z,23.48
2022-07-29T18:00:28.092Z,23.21
2022-07-29T18:02:57.430Z,23.03
2022-07-29T18:05:26.651Z,22.88
2022-07-29T18:07:59.047Z,22.69
2022-07-29T18:10:28.305Z,22.46
2022-07-29T18:12:57.594Z,22.37
2022-07-29T18:15:26.987Z,22.33
2022-07-29T18:17:57.789Z,22.23
2022-07-29T18:20:27.917Z,22.18
2022-07-29T18:22:57.232Z,22.02
2022-07-29T18:25:26.797Z,21.99
2022-07-29T18:28:00.363Z,21.90
2022-07-29T18:30:27.504Z,21.76
2022-07-29T18:33:19.656Z,21.65
2022-07-29T18:35:27.885Z,21.57
2022-07-29T18:38:00.744Z,21.48
2022-07-29T18:40:28.570Z,21.31
2022-07-29T18:42:59.191Z,21.23
2022-07-29T18:45:29.035Z,21.11
2022-07-29T18:47:58.557Z,20.97
2022-07-29T18:50:29.782Z,20.92
2022-07-29T18:53:01.754Z,20.84
2022-07-29T18:55:31.080Z,20.78
2022-07-29T18:58:00.568Z,20.71
2022-07-29T19:00:30.662Z,20.67
2022-07-29T19:03:00.107Z,20.66
2022-07-29T19:05:29.457Z,20.65
2022-07-29T19:07:59.437Z,20.64
2022-07-29T19:10:33.267Z,20.56
2022-07-29T19:13:02.846Z,20.53
2022-07-29T19:15:32.074Z,20.47
2022-07-29T19:18:01.594Z,20.46
2022-07-29T19:20:30.965Z,20.41
2022-07-29T19:23:00.396Z,20.33
2022-07-29T19:25:29.985Z,20.25
2022-07-29T19:27:59.588Z,20.17
2022-07-29T19:30:28.860Z,20.10
2022-07-29T19:32:58.617Z,20.06
2022-07-29T19:35:33.749Z,19.99
2022-07-29T19:38:04.246Z,19.90
2022-07-29T19:40:33.494Z,19.83
2022-07-29T19:43:02.988Z,19.79
2022-07-29T19:45:34.604Z,19.69
2022-07-29T19:48:05.184Z,19.64
2022-07-29T19:50:34.515Z,19.66
2022-07-29T19:53:03.961Z,19.56
2022-07-29T19:55:33.506Z,19.57
2022-07-29T19:58:04.693Z,19.54
2022-07-29T20:00:36.143Z,19.53
2022-07-29T20:03:06.004Z,19.41
2022-07-29T20:05:35.467Z,19.31
2022-07-29T20:08:06.383Z,19.25
2022-07-29T20:10:35.822Z,19.20
2022-07-29T20:13:05.355Z,19.15
2022-07-29T20:15:34.730Z,19.10
2022-07-29T20:18:04.267Z,19.06
2022-07-29T20:20:33.591Z,19.04
2022-07-29T20:23:03.713Z,19.02
2022-07-29T20:25:34.527Z,18.98
2022-07-29T20:28:03.877Z,18.97
2022-07-29T20:30:33.184Z,18.88
2022-07-29T20:33:02.489Z,18.88
2022-07-29T20:35:32.541Z,18.79
2022-07-29T20:38:02.003Z,18.77
2022-07-29T20:40:31.297Z,18.73
2022-07-29T20:43:00.781Z,18.61
2022-07-29T20:45:30.445Z,18.61
2022-07-29T20:47:59.763Z,18.57
2022-07-29T20:50:29.983Z,18.56
2022-07-29T20:52:59.330Z,18.58
2022-07-29T20:55:28.774Z,18.59
2022-07-29T20:57:58.400Z,18.59
2022-07-29T21:00:28.766Z,18.52
2022-07-29T21:02:58.707Z,18.46
2022-07-29T21:05:28.056Z,18.41
2022-07-29T21:07:58.325Z,18.41
2022-07-29T21:10:29.457Z,18.42
2022-07-29T21:13:01.002Z,18.44
2022-07-29T21:15:31.182Z,18.46
2022-07-29T21:18:05.253Z,18.44
2022-07-29T21:20:34.601Z,18.45
2022-07-29T21:23:03.858Z,18.44
2022-07-29T21:25:35.017Z,18.39
2022-07-29T21:28:22.383Z,18.35
2022-07-29T21:30:51.666Z,18.34
2022-07-29T21:33:21.123Z,18.33
2022-07-29T21:38:21.954Z,18.24
2022-07-29T21:40:52.599Z,18.20
2022-07-29T21:43:22.715Z,18.15
2022-07-29T21:45:52.100Z,18.10
2022-07-29T21:48:22.612Z,18.10
2022-07-29T21:50:52.603Z,18.10
2022-07-29T21:53:23.068Z,18.08
2022-07-29T21:55:55.499Z,18.04
2022-07-29T21:58:24.993Z,18.01
2022-07-29T22:00:54.412Z,17.96
2022-07-29T22:03:24.050Z,17.92
2022-07-29T22:05:53.393Z,17.93
2022-07-29T22:08:22.776Z,17.89
2022-07-29T22:10:52.202Z,17.85
2022-07-29T22:13:21.483Z,17.81
2022-07-29T22:15:50.836Z,17.77
2022-07-29T22:18:21.329Z,17.77
2022-07-29T22:20:51.255Z,17.76
2022-07-29T22:23:20.585Z,17.72
2022-07-29T22:25:50.219Z,17.75
2022-07-29T22:28:19.484Z,17.75
2022-07-29T22:30:48.910Z,17.77
2022-07-29T22:33:18.410Z,17.74
2022-07-29T22:35:48.551Z,17.71
2022-07-29T22:38:19.143Z,17.68
2022-07-29T22:40:50.769Z,17.69
2022-07-29T22:43:20.377Z,17.65
2022-07-29T22:45:49.722Z,17.56
2022-07-29T22:48:19.124Z,17.54
2022-07-29T22:50:48.557Z,17.50
2022-07-29T22:53:17.851Z,17.48
2022-07-29T22:55:48.035Z,17.46
2022-07-29T22:58:17.562Z,17.43
2022-07-29T23:00:46.938Z,17.42
2022-07-29T23:03:16.274Z,17.41
2022-07-29T23:05:45.595Z,17.37
2022-07-29T23:08:15.001Z,17.32
2022-07-29T23:10:44.288Z,17.23
2022-07-29T23:13:14.056Z,17.26
2022-07-29T23:15:43.510Z,17.31
2022-07-29T23:18:12.993Z,17.28
2022-07-29T23:20:43.888Z,17.26
2022-07-29T23:23:13.123Z,17.25
2022-07-29T23:25:42.458Z,17.30
2022-07-29T23:28:13.258Z,17.26
2022-07-29T23:30:43.572Z,17.26
2022-07-29T23:33:12.815Z,17.21
2022-07-29T23:35:42.437Z,17.20
2022-07-29T23:38:11.799Z,17.16
2022-07-29T23:40:41.143Z,17.16
2022-07-29T23:43:10.597Z,17.14
2022-07-29T23:45:44.944Z,17.08
2022-07-29T23:48:11.051Z,17.05
2022-07-29T23:50:40.388Z,17.04
2022-07-29T23:53:09.682Z,16.98
2022-07-29T23:55:39.414Z,16.94
2022-07-29T23:58:08.768Z,16.94
